createdAt,value
2023-02-23T00:01:31.195Z,39.11
2023-02-23T00:04:06.626Z,38.84
2023-02-23T00:06:40.578Z,38.60
2023-02-23T00:09:24.130Z,38.44
2023-02-23T00:12:01.544Z,38.56
2023-02-23T00:14:41.327Z,38.57
2023-02-23T00:17:16.929Z,38.53
2023-02-23T00:19:51.671Z,38.60
2023-02-23T00:22:40.197Z,38.56
2023-02-23T00:25:13.893Z,38.62
2023-02-23T00:27:48.512Z,38.61
2023-02-23T00:30:24.165Z,38.65
2023-02-23T00:32:56.365Z,38.80
2023-02-23T00:35:50.307Z,38.95
2023-02-23T00:38:22.937Z,38.94
2023-02-23T00:41:17.091Z,38.93
2023-02-23T00:43:52.423Z,38.90
2023-02-23T00:46:36.618Z,38.83
2023-02-23T00:49:05.865Z,38.69
2023-02-23T00:52:12.573Z,38.88
2023-02-23T00:54:48.690Z,38.89
2023-02-23T00:57:24.409Z,38.79
2023-02-23T01:00:25.826Z,38.86
2023-02-23T01:03:12.796Z,38.96
2023-02-23T01:05:41.939Z,38.87
2023-02-23T01:08:22.834Z,38.71
2023-02-23T01:11:01.427Z,38.65
2023-02-23T01:13:40.625Z,38.63
2023-02-23T01:16:20.364Z,38.74
2023-02-23T01:18:53.705Z,38.62
2023-02-23T01:21:45.726Z,38.57
2023-02-23T01:24:19.457Z,38.60
2023-02-23T01:26:52.625Z,38.61
2023-02-23T01:29:25.317Z,38.52
2023-02-23T01:32:12.700Z,38.66
2023-02-23T01:34:53.074Z,38.59
2023-02-23T01:37:25.982Z,38.62
2023-02-23T01:40:21.464Z,38.55
2023-02-23T01:42:53.919Z,38.55
2023-02-23T01:45:44.100Z,38.64
2023-02-23T01:48:22.025Z,38.70
2023-02-23T01:51:00.966Z,38.64
2023-02-23T01:53:44.403Z,38.66
2023-02-23T01:56:22.193Z,38.66
2023-02-23T01:59:08.235Z,38.77
2023-02-23T02:01:45.813Z,38.90
2023-02-23T02:04:35.531Z,40.04
2023-02-23T02:07:13.616Z,40.01
2023-02-23T02:10:17.624Z,40.34
2023-02-23T02:13:40.870Z,40.80
2023-02-23T02:16:39.964Z,39.89
2023-02-23T02:19:20.804Z,39.29
2023-02-23T02:22:36.504Z,38.91
2023-02-23T02:25:42.280Z,40.34
2023-02-23T02:28:46.381Z,39.99
2023-02-23T02:31:50.411Z,39.36
2023-02-23T02:34:40.549Z,39.17
2023-02-23T02:37:17.710Z,38.69
2023-02-23T02:40:17.840Z,38.69
2023-02-23T02:43:17.371Z,39.51
2023-02-23T02:46:01.800Z,39.74
2023-02-23T02:49:08.701Z,39.35
2023-02-23T04:07:48.668Z,37.81
2023-02-23T04:15:15.958Z,37.64
2023-02-23T04:17:49.862Z,37.19
2023-02-23T04:20:25.390Z,37.00
2023-02-23T04:23:05.924Z,36.82
2023-02-23T04:25:41.571Z,36.71
2023-02-23T04:28:18.600Z,36.68
2023-02-23T04:30:50.581Z,36.66
2023-02-23T04:33:26.056Z,36.62
2023-02-23T04:36:16.183Z,36.73
2023-02-23T04:38:48.223Z,36.68
2023-02-23T04:41:21.167Z,36.66
2023-02-23T04:43:53.350Z,36.68
2023-02-23T04:46:26.510Z,36.69
2023-02-23T04:49:09.457Z,36.63
2023-02-23T04:51:44.153Z,36.71
2023-02-23T04:54:18.033Z,36.68
2023-02-23T04:56:53.138Z,38.06
2023-02-23T04:59:25.813Z,37.43
2023-02-23T05:02:36.572Z,37.43
2023-02-23T05:05:06.817Z,37.03
2023-02-23T05:07:40.940Z,36.86
2023-02-23T05:10:14.181Z,36.71
2023-02-23T05:12:49.014Z,36.72
2023-02-23T05:15:19.266Z,37.18
2023-02-23T05:18:01.459Z,37.12
2023-02-23T05:20:37.261Z,37.00
2023-02-23T05:23:07.363Z,36.85
2023-02-23T05:25:41.886Z,36.78
2023-02-23T05:28:16.544Z,36.80
2023-02-23T05:30:46.187Z,36.80
2023-02-23T05:33:18.395Z,36.81
2023-02-23T05:35:54.270Z,36.95
2023-02-23T05:38:42.210Z,37.10
2023-02-23T05:41:24.176Z,37.06
2023-02-23T05:44:21.734Z,37.17
2023-02-23T05:46:56.060Z,37.30
2023-02-23T05:49:34.057Z,36.88
2023-02-23T05:52:08.946Z,36.87
2023-02-23T05:54:48.720Z,36.85
2023-02-23T05:57:23.150Z,36.79
2023-02-23T06:00:01.944Z,36.79
2023-02-23T06:02:41.240Z,36.80
2023-02-23T06:05:17.602Z,36.92
2023-02-23T06:07:48.389Z,36.86
2023-02-23T06:10:18.799Z,36.89
2023-02-23T06:12:53.033Z,36.90
2023-02-23T06:15:24.303Z,36.93
2023-02-23T06:18:01.013Z,36.90
2023-02-23T06:20:38.180Z,36.94
2023-02-23T06:23:14.576Z,36.90
2023-02-23T06:25:50.204Z,36.92
2023-02-23T06:28:24.798Z,36.93
2023-02-23T06:31:00.666Z,36.96
2023-02-23T06:33:37.566Z,37.13
2023-02-23T06:36:17.654Z,37.22
2023-02-23T06:38:49.300Z,37.18
2023-02-23T06:41:20.487Z,37.16
2023-02-23T06:43:58.268Z,37.07
2023-02-23T06:46:40.998Z,37.23
2023-02-23T06:49:20.210Z,37.16
2023-02-23T06:51:50.243Z,37.10
2023-02-23T06:54:24.743Z,37.13
2023-02-23T06:57:02.047Z,37.06
2023-02-23T06:59:42.059Z,36.94
2023-02-23T07:02:16.593Z,36.96
2023-02-23T07:04:48.290Z,36.86
2023-02-23T07:07:18.437Z,36.75
2023-02-23T07:09:52.117Z,36.66
2023-02-23T07:12:24.549Z,36.68
2023-02-23T07:14:56.028Z,36.61
2023-02-23T07:17:37.822Z,36.67
2023-02-23T07:20:19.491Z,36.75
2023-02-23T07:22:50.113Z,36.73
2023-02-23T07:25:25.960Z,36.70
2023-02-23T07:28:04.642Z,36.72
2023-02-23T07:30:38.060Z,36.63
2023-02-23T07:33:18.443Z,36.69
2023-02-23T07:35:53.571Z,36.65
2023-02-23T07:38:24.986Z,36.53
2023-02-23T07:41:01.582Z,36.50
2023-02-23T07:43:38.530Z,36.50
2023-02-23T07:46:17.893Z,36.48
2023-02-23T07:48:52.909Z,36.44
2023-02-23T07:51:24.852Z,36.40
2023-02-23T07:54:00.929Z,36.40
2023-02-23T07:56:41.280Z,36.46
2023-02-23T07:59:22.586Z,36.36
2023-02-23T08:01:56.220Z,36.28
2023-02-23T08:04:37.022Z,36.16
2023-02-23T08:07:12.152Z,36.08
2023-02-23T08:09:48.795Z,36.14
2023-02-23T08:12:20.831Z,36.10
2023-02-23T08:14:52.479Z,36.03
2023-02-23T08:17:24.285Z,35.97
2023-02-23T08:20:01.680Z,35.97
2023-02-23T08:22:47.357Z,35.95
2023-02-23T08:25:41.018Z,36.06
2023-02-23T08:28:14.939Z,35.98
2023-02-23T08:30:49.164Z,37.13
2023-02-23T08:33:18.732Z,36.38
2023-02-23T08:35:52.868Z,36.04
2023-02-23T08:38:25.116Z,35.98
2023-02-23T08:41:08.159Z,36.04
2023-02-23T08:43:41.042Z,35.94
2023-02-23T08:46:15.633Z,35.85
2023-02-23T08:48:53.833Z,35.90
2023-02-23T08:51:36.070Z,35.85
2023-02-23T08:54:44.622Z,35.88
2023-02-23T08:57:16.398Z,35.65
2023-02-23T08:59:50.608Z,35.60
2023-02-23T09:02:25.494Z,35.57
2023-02-23T09:05:18.264Z,35.75
2023-02-23T09:07:49.996Z,35.70
2023-02-23T09:10:25.980Z,35.63
2023-02-23T09:13:06.021Z,35.59
2023-02-23T09:16:10.648Z,35.65
2023-02-23T09:18:47.453Z,35.63
2023-02-23T09:21:24.837Z,35.53
2023-02-23T09:24:04.526Z,35.61
2023-02-23T09:26:45.906Z,35.63
2023-02-23T09:29:20.064Z,35.58
2023-02-23T09:31:55.329Z,35.51
2023-02-23T09:34:44.651Z,35.64
2023-02-23T09:37:14.221Z,35.63
2023-02-23T09:39:48.402Z,35.61
2023-02-23T09:42:24.713Z,35.53
2023-02-23T09:45:22.223Z,35.74
2023-02-23T09:48:08.822Z,35.95
2023-02-23T09:50:46.100Z,35.88
2023-02-23T09:53:46.665Z,35.94
2023-02-23T09:56:40.725Z,35.99
2023-02-23T09:59:22.887Z,35.99
2023-02-23T10:02:30.218Z,36.17
2023-02-23T10:05:10.457Z,36.19
2023-02-23T10:08:05.677Z,36.24
2023-02-23T10:11:20.061Z,36.40
2023-02-23T10:13:52.686Z,36.28
2023-02-23T10:16:44.692Z,36.17
2023-02-23T10:19:34.286Z,36.33
2023-02-23T10:22:12.380Z,36.15
2023-02-23T10:24:53.088Z,36.23
2023-02-23T10:27:34.301Z,36.26
2023-02-23T10:30:36.977Z,36.50
2023-02-23T10:33:18.062Z,36.45
2023-02-23T10:36:12.928Z,36.36
2023-02-23T10:38:51.070Z,36.52
2023-02-23T10:41:20.626Z,36.40
2023-02-23T10:43:53.361Z,36.36
2023-02-23T10:46:41.551Z,36.39
2023-02-23T10:49:24.652Z,36.42
2023-02-23T10:52:14.443Z,36.54
2023-02-23T10:54:54.913Z,36.57
2023-02-23T10:57:41.851Z,36.65
2023-02-23T11:00:21.861Z,36.74
2023-02-23T11:02:54.766Z,36.76
2023-02-23T11:05:49.708Z,36.80
2023-02-23T11:08:44.771Z,36.94
2023-02-23T11:11:24.381Z,37.07
2023-02-23T11:13:56.372Z,37.07
2023-02-23T11:16:46.732Z,37.11
2023-02-23T11:19:36.601Z,37.08
2023-02-23T11:22:25.283Z,36.97
2023-02-23T11:25:06.404Z,36.98
2023-02-23T11:27:37.950Z,36.89
2023-02-23T11:30:14.056Z,36.81
2023-02-23T11:33:00.407Z,36.89
2023-02-23T11:35:34.430Z,36.93
2023-02-23T11:38:40.917Z,37.26
2023-02-23T11:41:26.400Z,37.30
2023-02-23T11:44:08.737Z,37.21
2023-02-23T11:46:44.943Z,37.12
2023-02-23T11:49:32.615Z,37.24
2023-02-23T11:52:14.168Z,37.17
2023-02-23T11:55:06.325Z,37.15
2023-02-23T11:57:38.211Z,37.18
2023-02-23T12:00:26.262Z,37.26
2023-02-23T12:03:18.460Z,37.30
2023-02-23T12:05:58.439Z,37.25
2023-02-23T12:09:08.259Z,37.41
2023-02-23T12:11:48.794Z,37.42
2023-02-23T12:14:42.592Z,37.58
2023-02-23T12:17:26.300Z,37.52
2023-02-23T12:20:38.498Z,37.83
2023-02-23T12:23:26.056Z,37.68
2023-02-23T12:26:18.194Z,37.56
2023-02-23T12:29:21.958Z,37.78
2023-02-23T12:32:10.688Z,37.67
2023-02-23T12:35:12.436Z,37.64
2023-02-23T12:38:09.230Z,37.57
2023-02-23T12:40:45.406Z,37.67
2023-02-23T12:43:24.387Z,37.51
2023-02-23T12:46:25.190Z,37.72
2023-02-23T12:49:17.904Z,37.56
2023-02-23T12:52:10.546Z,37.56
2023-02-23T12:54:44.923Z,37.50
2023-02-23T12:57:31.428Z,37.61
2023-02-23T13:00:42.301Z,38.11
2023-02-23T13:03:38.443Z,37.80
2023-02-23T13:06:26.190Z,37.92
2023-02-23T13:09:18.802Z,38.22
2023-02-23T13:12:38.651Z,38.77
2023-02-23T13:15:32.433Z,38.78
2023-02-23T13:18:09.213Z,38.64
2023-02-23T13:20:50.210Z,38.53
2023-02-23T13:24:05.384Z,38.56
2023-02-23T13:27:09.279Z,38.74
2023-02-23T13:30:02.670Z,38.57
2023-02-23T13:32:41.135Z,38.56
2023-02-23T13:35:22.772Z,38.54
2023-02-23T13:39:19.183Z,38.88
2023-02-23T13:42:05.158Z,38.93
2023-02-23T13:45:10.600Z,38.83
2023-02-23T13:48:13.118Z,39.28
2023-02-23T13:51:02.557Z,39.17
2023-02-23T13:53:49.128Z,39.36
2023-02-23T13:56:24.684Z,39.55
2023-02-23T13:59:25.162Z,39.59
2023-02-23T14:01:56.661Z,39.26
2023-02-23T14:04:44.986Z,39.91
2023-02-23T14:07:34.629Z,39.78
2023-02-23T14:10:17.959Z,39.48
2023-02-23T14:13:24.513Z,39.87
2023-02-23T14:16:17.197Z,39.78
2023-02-23T14:19:16.953Z,39.96
2023-02-23T14:22:26.366Z,40.10
2023-02-23T14:25:37.811Z,40.52
2023-02-23T14:28:44.357Z,40.85
2023-02-23T14:31:25.001Z,40.68
2023-02-23T14:34:25.528Z,40.60
2023-02-23T14:37:46.405Z,40.75
2023-02-23T14:40:32.959Z,40.71
2023-02-23T14:43:45.994Z,40.84
2023-02-23T14:46:27.973Z,40.80
2023-02-23T14:49:24.845Z,40.94
2023-02-23T14:52:06.384Z,40.92
2023-02-23T14:54:42.869Z,41.12
2023-02-23T14:57:33.807Z,41.12
2023-02-23T15:00:45.102Z,41.02
2023-02-23T15:03:16.443Z,41.15
2023-02-23T15:06:06.097Z,41.06
2023-02-23T15:08:49.889Z,41.29
2023-02-23T15:11:29.983Z,41.32
2023-02-23T15:14:21.851Z,41.49
2023-02-23T15:17:08.911Z,41.68
2023-02-23T15:19:50.284Z,41.69
2023-02-23T15:22:36.506Z,41.52
2023-02-23T15:25:25.591Z,41.78
2023-02-23T15:28:04.451Z,41.82
2023-02-23T15:30:37.928Z,41.94
2023-02-23T15:33:25.749Z,42.20
2023-02-23T15:36:24.950Z,42.44
2023-02-23T15:39:06.229Z,42.77
2023-02-23T15:41:42.125Z,43.33
2023-02-23T15:44:38.367Z,44.21
2023-02-23T15:47:42.135Z,45.00
2023-02-23T15:50:37.302Z,45.31
2023-02-23T15:53:40.803Z,45.33
2023-02-23T15:56:33.483Z,45.81
2023-02-23T15:59:17.962Z,46.29
2023-02-23T16:02:01.440Z,46.51
2023-02-23T16:04:44.800Z,46.52
2023-02-23T16:07:32.409Z,46.77
2023-02-23T16:10:30.739Z,46.70
2023-02-23T16:13:17.341Z,46.31
2023-02-23T16:15:54.451Z,46.02
2023-02-23T16:18:45.173Z,46.19
2023-02-23T16:21:25.346Z,46.19
2023-02-23T16:24:16.710Z,47.85
2023-02-23T16:27:05.496Z,46.87
2023-02-23T16:29:45.367Z,46.63
2023-02-23T16:32:26.853Z,46.59
2023-02-23T16:35:40.926Z,46.81
2023-02-23T16:38:21.922Z,46.74
2023-02-23T16:41:01.886Z,46.61
2023-02-23T16:43:43.302Z,46.72
2023-02-23T16:46:21.366Z,46.75
2023-02-23T16:49:13.363Z,47.22
2023-02-23T16:51:54.431Z,47.49
2023-02-23T16:54:55.977Z,47.76
2023-02-23T16:57:54.355Z,48.03
2023-02-23T17:00:38.597Z,47.93
2023-02-23T17:03:22.968Z,48.10
2023-02-23T17:06:18.960Z,48.62
2023-02-23T17:08:58.410Z,48.63
2023-02-23T17:11:41.938Z,48.91
2023-02-23T17:14:34.387Z,49.13
2023-02-23T17:17:08.630Z,49.18
2023-02-23T17:19:41.313Z,48.87
2023-02-23T17:22:17.532Z,49.02
2023-02-23T17:24:51.110Z,49.29
2023-02-23T17:27:26.719Z,49.37
2023-02-23T17:30:14.400Z,49.51
2023-02-23T17:32:48.736Z,49.72
2023-02-23T17:35:21.321Z,49.78
2023-02-23T17:37:54.942Z,49.79
2023-02-23T17:40:38.230Z,50.04
2023-02-23T17:43:12.975Z,49.93
2023-02-23T17:45:50.908Z,50.16
2023-02-23T17:48:31.766Z,50.42
2023-02-23T17:51:14.071Z,50.68
2023-02-23T17:53:47.831Z,50.68
2023-02-23T17:56:22.555Z,50.90
2023-02-23T17:58:56.576Z,51.39
2023-02-23T18:01:32.789Z,51.32
2023-02-23T18:04:08.912Z,51.40
2023-02-23T18:06:38.630Z,51.17
2023-02-23T18:09:16.556Z,51.10
2023-02-23T18:11:49.436Z,51.17
2023-02-23T18:14:20.795Z,51.24
2023-02-23T18:16:50.542Z,51.37
2023-02-23T18:19:22.425Z,51.54
2023-02-23T18:22:02.754Z,51.62
2023-02-23T18:24:36.433Z,51.84
2023-02-23T18:27:09.411Z,51.86
2023-02-23T18:29:46.316Z,51.67
2023-02-23T18:32:20.758Z,51.81
2023-02-23T18:34:52.966Z,52.01
2023-02-23T18:37:26.242Z,52.00
2023-02-23T18:40:10.494Z,52.24
2023-02-23T18:42:45.116Z,52.33
2023-02-23T18:45:18.017Z,52.10
2023-02-23T18:47:54.802Z,52.09
2023-02-23T18:50:38.921Z,52.01
2023-02-23T18:53:13.065Z,52.15
2023-02-23T18:55:47.133Z,52.06
2023-02-23T18:58:18.927Z,51.92
2023-02-23T19:00:50.845Z,52.07
2023-02-23T19:03:22.942Z,51.94
2023-02-23T19:06:18.145Z,52.42
2023-02-23T19:09:15.200Z,52.76
2023-02-23T19:11:46.756Z,53.00
2023-02-23T19:14:41.005Z,52.47
2023-02-23T19:17:16.975Z,52.99
2023-02-23T19:19:48.825Z,52.82
2023-02-23T19:22:20.519Z,52.70
2023-02-23T19:24:56.445Z,52.85
2023-02-23T19:27:35.968Z,52.79
2023-02-23T19:30:11.920Z,52.65
2023-02-23T19:32:47.752Z,52.63
2023-02-23T19:35:25.176Z,52.61
2023-02-23T19:37:56.864Z,52.58
2023-02-23T19:40:38.765Z,52.87
2023-02-23T19:43:14.289Z,52.50
2023-02-23T19:45:48.885Z,54.52
2023-02-23T19:48:20.739Z,52.84
2023-02-23T19:50:54.634Z,52.48
2023-02-23T19:53:33.938Z,52.35
2023-02-23T19:56:13.086Z,52.17
2023-02-23T19:58:48.192Z,52.14
2023-02-23T20:01:23.032Z,52.13
2023-02-23T20:04:05.165Z,51.97
2023-02-23T20:06:46.576Z,52.02
2023-02-23T20:09:19.520Z,51.98
2023-02-23T20:11:51.312Z,51.96
2023-02-23T20:14:26.655Z,52.20
2023-02-23T20:17:06.114Z,52.00
2023-02-23T20:19:38.230Z,51.84
2023-02-23T20:22:16.527Z,51.89
2023-02-23T20:24:48.822Z,51.86
2023-02-23T20:27:23.903Z,51.97
2023-02-23T20:32:53.697Z,52.30
2023-02-23T20:35:36.974Z,52.23
2023-02-23T20:38:16.227Z,52.03
2023-02-23T20:40:50.024Z,51.95
2023-02-23T20:43:25.496Z,52.01
2023-02-23T20:46:01.579Z,52.43
2023-02-23T20:48:38.829Z,52.49
2023-02-23T20:51:46.490Z,52.69
2023-02-23T20:54:23.080Z,52.08
2023-02-23T20:57:03.185Z,51.80
2023-02-23T20:59:39.598Z,51.91
2023-02-23T21:02:18.512Z,51.88
2023-02-23T21:04:51.091Z,51.89
2023-02-23T21:07:32.976Z,51.94
2023-02-23T21:10:14.000Z,51.91
2023-02-23T21:12:48.730Z,53.91
2023-02-23T21:15:18.986Z,52.48
2023-02-23T21:17:54.669Z,51.84
2023-02-23T21:20:37.024Z,51.83
2023-02-23T21:23:09.012Z,51.62
2023-02-23T21:25:42.010Z,51.53
2023-02-23T21:28:18.741Z,51.52
2023-02-23T21:30:53.110Z,51.82
2023-02-23T21:33:26.666Z,51.85
2023-02-23T21:36:06.603Z,51.77
2023-02-23T21:38:38.620Z,51.81
2023-02-23T21:41:14.517Z,51.80
2023-02-23T21:43:49.260Z,51.80
2023-02-23T21:46:30.082Z,51.76
2023-02-23T21:49:13.281Z,52.01
2023-02-23T21:51:45.937Z,51.74
2023-02-23T21:54:18.153Z,53.84
2023-02-23T21:56:53.933Z,52.52
2023-02-23T21:59:27.046Z,51.94
2023-02-23T22:02:09.646Z,51.87
2023-02-23T22:04:47.236Z,51.80
2023-02-23T22:07:18.176Z,52.00
2023-02-23T22:09:50.814Z,51.62
2023-02-23T22:12:24.878Z,52.08
2023-02-23T22:15:14.148Z,52.14
2023-02-23T22:17:46.183Z,51.97
2023-02-23T22:20:22.820Z,51.76
2023-02-23T22:22:56.535Z,51.84
2023-02-23T22:25:34.448Z,51.72
2023-02-23T22:28:09.816Z,51.66
2023-02-23T22:30:52.561Z,51.60
2023-02-23T22:33:25.920Z,51.49
2023-02-23T22:36:06.086Z,51.45
2023-02-23T22:38:47.655Z,51.27
2023-02-23T22:41:18.117Z,51.08
2023-02-23T22:43:56.592Z,51.05
2023-02-23T22:46:42.699Z,50.90
2023-02-23T22:49:17.839Z,50.77
2023-02-23T22:51:53.182Z,50.65
2023-02-23T22:54:30.664Z,50.42
2023-02-23T22:57:06.955Z,50.68
2023-02-23T22:59:38.453Z,50.36
2023-02-23T23:02:14.239Z,50.05
2023-02-23T23:04:48.946Z,49.94
2023-02-23T23:07:24.889Z,49.84
2023-02-23T23:10:06.441Z,49.94
2023-02-23T23:12:52.238Z,49.77
2023-02-23T23:15:25.084Z,49.86
2023-02-23T23:17:57.159Z,49.62
2023-02-23T23:20:34.621Z,49.54
2023-02-23T23:23:08.714Z,49.29
2023-02-23T23:25:43.017Z,49.37
2023-02-23T23:28:16.865Z,49.33
2023-02-23T23:30:49.817Z,49.32
2023-02-23T23:33:22.424Z,49.18
2023-02-23T23:35:55.260Z,48.97
2023-02-23T23:39:46.836Z,49.44
